Time;durP1;ratioP1;P1;durP2;ratioP2;P2;SDS_P1;SDS_P2;PMS_P1;PMS_P2;Temp;Humidity;BMP_temperature;BMP_pressure;BME280_temperature;BME280_humidity;BME280_pressure;Samples;Min_cycle;Max_cycle;Signal;HPM_P1;HPM_P2
2021/09/04 00:01:21;;;;;;;18.60;12.40;;;;;;;11.98;75.25;99600.41;465438;1194;144529;-62
2021/09/04 00:11:25;;;;;;;14.10;10.80;;;;;;;12.04;75.22;99602.10;461208;1194;142584;-62
2021/09/04 00:21:28;;;;;;;16.30;10.20;;;;;;;12.04;75.37;99597.54;463340;1194;141744;-62
2021/09/04 00:31:31;;;;;;;13.40;10.10;;;;;;;11.96;75.38;99590.38;457004;1195;142076;-64
2021/09/04 00:41:35;;;;;;;15.70;10.70;;;;;;;11.79;75.18;99599.27;457763;1194;142215;-63
2021/09/04 00:51:39;;;;;;;17.00;12.20;;;;;;;11.67;75.35;99602.71;456988;1194;145639;-61
2021/09/04 01:01:43;;;;;;;14.30;11.00;;;;;;;11.55;75.88;99604.90;472002;1194;162556;-62
2021/09/04 01:11:48;;;;;;;16.60;9.90;;;;;;;11.39;76.03;99605.98;469042;1191;142340;-63
2021/09/04 01:21:53;;;;;;;14.40;9.90;;;;;;;11.24;76.24;99610.83;472837;1194;142860;-62
2021/09/04 01:31:56;;;;;;;18.70;10.00;;;;;;;11.13;76.38;99621.87;472129;1194;143659;-62
2021/09/04 01:41:59;;;;;;;12.20;8.60;;;;;;;11.06;76.45;99621.42;472911;1194;141802;-62
2021/09/04 01:52:04;;;;;;;14.20;10.40;;;;;;;10.94;76.53;99625.91;472986;1194;142811;-62
2021/09/04 02:02:08;;;;;;;12.80;7.80;;;;;;;10.83;76.91;99624.34;469927;1183;142149;-62
2021/09/04 02:12:12;;;;;;;15.20;9.60;;;;;;;10.78;77.15;99620.13;456633;1201;142766;-60
2021/09/04 02:22:15;;;;;;;14.50;8.10;;;;;;;10.65;77.51;99620.06;460603;1194;141811;-62
2021/09/04 02:32:19;;;;;;;9.80;8.20;;;;;;;10.46;77.71;99627.71;472169;1194;143109;-62
2021/09/04 02:42:22;;;;;;;10.30;7.70;;;;;;;10.35;78.09;99630.67;472744;1194;141544;-64
2021/09/04 02:52:25;;;;;;;12.80;8.50;;;;;;;10.26;78.41;99632.77;472807;1194;141671;-65
2021/09/04 03:02:29;;;;;;;12.40;9.30;;;;;;;10.15;78.77;99647.93;472103;1193;142709;-62
2021/09/04 03:12:32;;;;;;;11.30;7.40;;;;;;;10.03;78.96;99656.39;472861;1194;141708;-62
2021/09/04 03:22:36;;;;;;;10.90;8.00;;;;;;;9.93;79.19;99656.94;472924;1194;141407;-62
2021/09/04 03:32:40;;;;;;;10.60;7.20;;;;;;;9.86;79.36;99659.46;472086;1193;141543;-62
2021/09/04 03:42:43;;;;;;;8.00;6.30;;;;;;;9.80;79.70;99667.02;463083;1190;142256;-62
2021/09/04 03:52:46;;;;;;;10.40;7.10;;;;;;;9.72;79.40;99673.57;456031;1195;145280;-62
2021/09/04 04:02:49;;;;;;;12.00;8.10;;;;;;;9.60;79.53;99681.27;459028;1195;141999;-61
2021/09/04 04:12:54;;;;;;;13.10;7.60;;;;;;;9.56;79.82;99692.20;458138;1194;141726;-62
2021/09/04 04:22:57;;;;;;;13.20;7.60;;;;;;;9.61;80.05;99697.84;468792;1194;141483;-64
2021/09/04 04:33:00;;;;;;;11.40;7.80;;;;;;;9.80;80.13;99696.37;472989;1194;141604;-61
2021/09/04 04:43:04;;;;;;;9.00;6.80;;;;;;;10.05;79.80;99712.05;472943;1194;141893;-61
2021/09/04 04:53:07;;;;;;;11.50;7.20;;;;;;;10.32;79.33;99717.09;457194;1194;141530;-63
2021/09/04 05:03:10;;;;;;;8.20;5.80;;;;;;;10.60;78.63;99714.53;467152;1192;140937;-63
2021/09/04 05:13:14;;;;;;;7.80;4.90;;;;;;;11.04;78.01;99716.67;472761;1194;141049;-64
2021/09/04 05:23:17;;;;;;;5.00;4.10;;;;;;;13.76;77.13;99722.63;467405;1194;141151;-62
2021/09/04 05:33:21;;;;;;;4.80;3.20;;;;;;;21.78;66.71;99719.63;464221;1192;140654;-64
2021/09/04 05:43:25;;;;;;;4.40;2.80;;;;;;;27.02;56.33;99723.98;472933;1194;141558;-63
2021/09/04 05:53:28;;;;;;;3.20;2.90;;;;;;;30.49;47.59;99719.46;472117;1194;142260;-64
2021/09/04 06:03:31;;;;;;;4.40;3.20;;;;;;;32.40;41.01;99721.76;470496;1194;141489;-63
2021/09/04 06:13:36;;;;;;;2.70;2.50;;;;;;;34.23;36.57;99728.77;472912;1194;140804;-63
2021/09/04 06:23:39;;;;;;;2.40;2.20;;;;;;;36.76;32.84;99735.35;472138;1195;141165;-63
2021/09/04 06:33:42;;;;;;;2.00;1.90;;;;;;;38.30;28.95;99744.61;472922;1194;141128;-64
2021/09/04 06:43:45;;;;;;;;;;;;;;;38.83;27.01;99741.73;472298;1183;140893;-62
2021/09/04 06:53:48;;;;;;;2.30;1.90;;;;;;;39.94;24.85;99744.46;473109;1194;127177;-64
2021/09/04 07:03:51;;;;;;;2.40;2.20;;;;;;;41.33;23.38;99743.84;472938;1194;141058;-64
2021/09/04 07:13:54;;;;;;;1.60;1.40;;;;;;;42.67;21.76;99746.02;472105;1193;141758;-64
2021/09/04 07:23:58;;;;;;;1.80;1.70;;;;;;;43.51;20.12;99755.59;472921;1194;141759;-64
2021/09/04 07:34:01;;;;;;;2.70;1.60;;;;;;;44.85;19.07;99766.83;472958;1189;140823;-64
2021/09/04 07:44:06;;;;;;;3.90;1.90;;;;;;;46.16;17.68;99764.42;470587;1194;141929;-64
2021/09/04 07:54:09;;;;;;;4.20;2.40;;;;;;;47.27;16.72;99770.98;472929;1194;141576;-64
2021/09/04 08:04:14;;;;;;;2.10;2.00;;;;;;;47.15;15.48;99775.38;465322;1195;142924;-65
2021/09/04 08:14:17;;;;;;;2.60;2.50;;;;;;;45.42;15.15;99774.06;472020;1194;140891;-64
2021/09/04 08:24:20;;;;;;;2.50;2.40;;;;;;;45.59;15.15;99779.09;472777;1194;141175;-65
2021/09/04 08:34:24;;;;;;;1.70;1.20;;;;;;;46.84;14.25;99781.48;472582;1194;140437;-64
2021/09/04 08:44:27;;;;;;;2.50;1.30;;;;;;;39.55;15.95;99782.48;471663;1194;140811;-64
2021/09/04 08:54:31;;;;;;;1.50;1.10;;;;;;;31.75;19.42;99792.59;472564;1193;140710;-64
2021/09/04 09:04:34;;;;;;;3.10;1.10;;;;;;;27.33;22.41;99802.92;472691;1194;140676;-63
2021/09/04 09:14:55;;;;;;;1.50;1.40;;;;;;;24.34;25.40;99810.99;456053;1191;10140064;-64
2021/09/04 09:25:13;;;;;;;3.80;2.20;;;;;;;22.77;27.43;99818.44;472775;1194;141231;-64
2021/09/04 09:35:16;;;;;;;;;;;;;;;21.58;28.25;99826.97;457160;1194;140564;-61
2021/09/04 09:45:20;;;;;;;2.50;1.40;;;;;;;20.52;29.36;99830.89;472883;1194;126852;-63
2021/09/04 09:55:24;;;;;;;1.50;1.20;;;;;;;20.07;30.01;99824.67;472688;1194;141155;-62
2021/09/04 10:05:29;;;;;;;3.70;1.80;;;;;;;19.49;31.18;99830.19;472046;1191;142711;-64
2021/09/04 10:15:35;;;;;;;1.20;0.90;;;;;;;19.26;31.79;99835.60;472670;1194;141768;-63
2021/09/04 10:25:38;;;;;;;1.70;1.10;;;;;;;18.96;32.29;99826.92;462482;1194;140139;-63
2021/09/04 10:35:56;;;;;;;1.50;0.90;;;;;;;18.55;32.74;99824.89;456010;1194;140660;-62
2021/09/04 10:46:00;;;;;;;2.10;1.20;;;;;;;18.20;33.34;99830.92;455788;1194;140868;-59
2021/09/04 10:56:21;;;;;;;1.40;0.90;;;;;;;18.08;34.06;99832.02;454510;1194;141224;-59
2021/09/04 11:06:25;;;;;;;1.20;1.10;;;;;;;17.99;34.32;99828.06;472220;1194;141658;-59
2021/09/04 11:16:35;;;;;;;1.40;0.80;;;;;;;17.92;34.93;99829.73;472416;1194;140781;-68
2021/09/04 11:26:49;;;;;;;1.40;0.90;;;;;;;17.92;35.61;99826.31;471950;1194;141627;-68
2021/09/04 11:36:52;;;;;;;1.10;0.90;;;;;;;18.01;34.94;99830.66;472509;1194;140584;-68
2021/09/04 11:46:55;;;;;;;2.00;1.00;;;;;;;17.94;34.83;99827.55;465648;1194;142251;-59
2021/09/04 11:56:58;;;;;;;1.20;1.10;;;;;;;17.92;35.13;99823.19;463477;1193;10001717;-63
2021/09/04 12:07:02;;;;;;;2.90;1.20;;;;;;;17.90;35.45;99825.63;472390;1194;140258;-62
2021/09/04 12:17:07;;;;;;;3.10;1.80;;;;;;;17.90;35.71;99824.79;471211;1194;142515;-62
2021/09/04 12:27:11;;;;;;;1.70;1.30;;;;;;;17.93;36.01;99812.84;472647;1183;141550;-61
2021/09/04 12:37:27;;;;;;;2.10;1.60;;;;;;;17.90;36.63;99811.64;472467;1194;142026;-63
2021/09/04 12:47:41;;;;;;;2.60;1.20;;;;;;;17.93;36.66;99816.04;471892;1194;140536;-62
2021/09/04 12:57:44;;;;;;;2.30;1.10;;;;;;;18.04;37.02;99818.77;472694;1194;140730;-62
2021/09/04 13:07:49;;;;;;;1.40;1.20;;;;;;;18.04;36.71;99820.35;471904;1194;141303;-61
2021/09/04 13:17:54;;;;;;;2.00;1.10;;;;;;;18.01;37.21;99824.33;462707;1193;140583;-63
2021/09/04 13:27:58;;;;;;;1.50;1.10;;;;;;;17.87;36.98;99826.44;460257;1194;141685;-63
2021/09/04 13:38:01;;;;;;;1.60;1.10;;;;;;;17.85;37.29;99824.73;468358;1194;141927;-62
2021/09/04 13:48:06;;;;;;;1.20;1.00;;;;;;;18.10;37.82;99824.34;456119;1194;140698;-61
2021/09/04 13:58:09;;;;;;;4.80;3.60;;;;;;;18.32;37.85;99820.27;473001;1183;141527;-62
2021/09/04 14:08:12;;;;;;;3.70;2.10;;;;;;;18.02;38.00;99825.45;471898;1194;142825;-61
2021/09/04 14:18:16;;;;;;;1.90;1.40;;;;;;;17.70;38.31;99821.43;460037;1194;145076;-61
2021/09/04 14:28:27;;;;;;;3.50;1.40;;;;;;;17.73;38.38;99819.75;472644;1193;141462;-62
2021/09/04 14:38:31;;;;;;;1.60;1.40;;;;;;;17.59;38.87;99822.90;471804;1194;140866;-61
2021/09/04 14:48:34;;;;;;;2.50;1.60;;;;;;;17.53;38.76;99824.20;472534;1194;140247;-60
2021/09/04 14:58:38;;;;;;;3.20;1.30;;;;;;;17.44;38.79;99823.02;472680;1194;141230;-59
2021/09/04 15:08:41;;;;;;;1.70;1.30;;;;;;;17.46;38.98;99822.35;461446;1194;141074;-59
2021/09/04 15:18:44;;;;;;;2.90;1.30;;;;;;;17.49;39.14;99819.03;458949;1194;142279;-58
2021/09/04 15:28:48;;;;;;;2.00;1.40;;;;;;;17.37;39.01;99830.02;463421;1194;140693;-59
2021/09/04 15:38:52;;;;;;;4.20;1.50;;;;;;;17.21;38.76;99831.95;457183;1195;141734;-58
2021/09/04 15:48:56;;;;;;;3.00;2.10;;;;;;;17.05;39.03;99830.00;458401;1194;140852;-60
2021/09/04 15:58:59;;;;;;;1.80;0.80;;;;;;;16.91;39.38;99829.33;461243;1194;141250;-59
2021/09/04 16:09:02;;;;;;;3.70;1.30;;;;;;;16.73;40.29;99829.67;472669;1191;140702;-59
2021/09/04 16:19:06;;;;;;;2.70;1.10;;;;;;;16.43;41.04;99828.67;460310;1194;140549;-59
2021/09/04 16:29:10;;;;;;;2.40;1.40;;;;;;;16.19;41.76;99821.89;457974;1194;139998;-57
2021/09/04 16:39:13;;;;;;;4.10;1.30;;;;;;;15.90;42.36;99827.75;463882;1194;140900;-59
2021/09/04 16:49:18;;;;;;;1.80;1.70;;;;;;;15.61;43.12;99834.34;465642;1194;143672;-58
2021/09/04 16:59:22;;;;;;;2.40;2.00;;;;;;;15.27;44.03;99844.42;469929;1194;140604;-60
2021/09/04 17:09:26;;;;;;;2.50;1.90;;;;;;;14.90;44.42;99844.02;465716;1194;140754;-64
2021/09/04 17:19:29;;;;;;;6.20;2.20;;;;;;;14.55;44.93;99855.29;472865;1194;140912;-64
2021/09/04 17:29:33;;;;;;;4.40;2.80;;;;;;;14.18;45.64;99860.46;465398;1194;192490;-63
2021/09/04 17:39:37;;;;;;;3.30;2.10;;;;;;;13.86;46.41;99863.36;473106;1185;140780;-64
2021/09/04 17:49:41;;;;;;;7.70;4.60;;;;;;;13.57;47.55;99879.31;473099;1183;140599;-64
2021/09/04 17:59:45;;;;;;;9.60;5.50;;;;;;;13.30;48.67;99888.21;471812;1194;141301;-64
2021/09/04 18:09:50;;;;;;;7.50;5.00;;;;;;;13.05;49.57;99896.98;472837;1194;144622;-64
2021/09/04 18:19:54;;;;;;;9.00;4.60;;;;;;;12.83;50.28;99911.31;467764;1190;142348;-63
2021/09/04 18:29:57;;;;;;;9.10;6.00;;;;;;;12.64;51.12;99923.29;466051;1194;142483;-64
2021/09/04 18:40:02;;;;;;;5.90;4.50;;;;;;;12.43;51.83;99933.30;456998;1202;140342;-62
2021/09/04 18:50:12;;;;;;;7.60;4.80;;;;;;;12.24;52.57;99944.39;456667;1195;140341;-64
2021/09/04 19:00:17;;;;;;;6.40;4.20;;;;;;;12.08;53.16;99951.36;459808;1195;143659;-63
2021/09/04 19:10:20;;;;;;;7.70;3.80;;;;;;;11.98;53.53;99964.12;456998;1195;140293;-64
2021/09/04 19:20:23;;;;;;;6.50;3.60;;;;;;;11.84;53.76;99969.02;467049;1195;140902;-62
2021/09/04 19:30:26;;;;;;;8.40;5.70;;;;;;;11.67;54.10;99982.14;459178;1195;140526;-64
2021/09/04 19:40:30;;;;;;;6.70;4.10;;;;;;;11.60;54.32;99990.11;462595;1194;142261;-63
2021/09/04 19:50:34;;;;;;;12.10;6.10;;;;;;;11.52;54.54;99996.59;466702;1195;141363;-64
2021/09/04 20:00:37;;;;;;;6.80;5.00;;;;;;;11.43;55.06;99998.34;472598;1194;140879;-62
2021/09/04 20:10:40;;;;;;;7.20;4.10;;;;;;;11.37;55.33;100010.82;472269;1195;141310;-63
2021/09/04 20:20:43;;;;;;;4.80;3.00;;;;;;;11.35;55.52;100020.21;472561;1194;141199;-64
2021/09/04 20:30:46;;;;;;;4.40;3.30;;;;;;;11.29;55.67;100026.33;472580;1195;140327;-64
2021/09/04 20:40:50;;;;;;;6.90;3.40;;;;;;;11.22;55.77;100037.96;472015;1194;143549;-64
2021/09/04 20:50:54;;;;;;;5.50;3.30;;;;;;;11.17;56.11;100041.23;472875;1194;144571;-64
2021/09/04 21:00:57;;;;;;;5.00;3.70;;;;;;;11.08;56.39;100044.08;469388;1195;141683;-63
2021/09/04 21:11:01;;;;;;;6.20;3.50;;;;;;;10.97;56.74;100050.14;471947;1195;142738;-63
2021/09/04 21:21:05;;;;;;;6.50;3.60;;;;;;;10.95;57.07;100062.48;472553;1195;140442;-63
2021/09/04 21:31:08;;;;;;;6.30;4.40;;;;;;;10.91;57.23;100068.82;473063;1192;145003;-63
2021/09/04 21:41:11;;;;;;;4.40;3.20;;;;;;;10.76;57.69;100074.05;471976;1194;141089;-63
2021/09/04 21:51:14;;;;;;;5.50;3.30;;;;;;;10.62;58.06;100080.84;464112;1194;192442;-63
2021/09/04 22:01:17;;;;;;;5.80;2.80;;;;;;;10.54;58.43;100089.13;457895;1195;145286;-61
2021/09/04 22:11:24;;;;;;;6.20;3.30;;;;;;;10.43;58.77;100099.00;460776;1194;142075;-61
2021/09/04 22:21:27;;;;;;;9.30;4.70;;;;;;;10.31;59.22;100113.65;472390;1195;141381;-62
2021/09/04 22:31:30;;;;;;;5.80;4.10;;;;;;;10.17;59.71;100118.08;463300;1194;142154;-62
2021/09/04 22:41:34;;;;;;;7.70;4.40;;;;;;;10.06;60.28;100127.58;456872;1194;141327;-62
2021/09/04 22:51:39;;;;;;;8.50;5.10;;;;;;;9.92;61.06;100134.21;471198;1193;141631;-62
2021/09/04 23:01:42;;;;;;;6.10;3.90;;;;;;;9.99;61.62;100143.66;472049;1183;142264;-61
2021/09/04 23:11:46;;;;;;;6.10;3.70;;;;;;;10.21;61.56;100152.15;472704;1194;141482;-62
2021/09/04 23:21:49;;;;;;;6.40;4.00;;;;;;;10.43;61.67;100154.17;460551;1194;141045;-60
2021/09/04 23:31:53;;;;;;;6.10;4.70;;;;;;;10.53;61.44;100148.56;455793;1194;141397;-61
2021/09/04 23:41:57;;;;;;;7.80;4.00;;;;;;;10.53;61.64;100156.05;456918;1199;141348;-59
2021/09/04 23:52:02;;;;;;;5.50;4.00;;;;;;;10.53;61.67;100161.65;456648;1199;141748;-61
